PWSweather.com
Personal Weather Stations
Station Observations

BunburyAU

Lat: -33.378333, Lon: 115.651667

Elevation: 95

Station Type: Fine Offset WH2081

http://www.sedgleymanor.com/wx/index.htm

Latest ConditionsUpdated 4:15:01 PM GMT+08:08 Monday, Jul 28, 2014
Currently Today's Max Today's Min Today's Average
Temperature 67.3°F19.6°C 71.1°F21.7°C 57.2°F14.0°C 62.6°F17.0°C
Dew Point 53.8°F12.1°C 56.9°F13.8°C 49.7°F9.8°C 53.9°F12.2°C
Winds 4.2 mph WSW6.8 kmh WSW 5.3 mph WSW8.5 kmh WSW - 3.0 mph 4.8 kmh
Wind Gusts 9.8 mph15.8 kmh 14.5 mph23.3 kmh - -
Humidity 62% 89% 59% 74%
Pressure 30.11 in1019.6 mb 30.15 in1021.0 mb 30.08 in1018.6 mb -
Precipitation - 0.01 in0.3 mm - -
Hour Temp Dew Point Humidity Winds Wind Gusts Pressure Precip Precip Rate Daily Precip Total
04:15 PM 67.3°F19.6°C 53.8°F12.1°C 62% 4.2 mph WSW6.8 kmh WSW 9.8 mph15.8 kmh 30.11 in1019.6 mb 0.00 in0.0 mm 0.00 in/hr0.0 mm/hr 0.01 in0.3 mm
04:00 PM 66.4°F19.1°C 53.0°F11.7°C 62% 2.8 mph WSW4.5 kmh WSW 9.8 mph15.8 kmh 30.11 in1019.6 mb 0.00 in0.0 mm 0.00 in/hr0.0 mm/hr 0.01 in0.3 mm
03:45 PM 68.7°F20.4°C 54.3°F12.4°C 60% 3.0 mph SSW4.8 kmh SSW 10.7 mph17.2 kmh 30.11 in1019.6 mb 0.00 in0.0 mm 0.00 in/hr0.0 mm/hr 0.01 in0.3 mm
03:30 PM 68.0°F20.0°C 55.8°F13.2°C 65% 3.1 mph WSW5.0 kmh WSW 11.4 mph18.3 kmh 30.11 in1019.6 mb 0.00 in0.0 mm 0.00 in/hr0.0 mm/hr 0.01 in0.3 mm
03:15 PM 63.3°F17.4°C 56.7°F13.7°C 79% 2.6 mph SSW4.2 kmh SSW 7.6 mph12.2 kmh 30.11 in1019.6 mb 0.00 in0.0 mm 0.00 in/hr0.0 mm/hr 0.01 in0.3 mm
03:00 PM 63.5°F17.5°C 56.5°F13.6°C 78% 2.5 mph NNW4.0 kmh NNW 6.9 mph11.1 kmh 30.10 in1019.3 mb 0.00 in0.0 mm 0.00 in/hr0.0 mm/hr 0.01 in0.3 mm
02:45 PM 64.2°F17.9°C 56.9°F13.8°C 77% 2.3 mph NW3.7 kmh NW 6.9 mph11.1 kmh 30.10 in1019.3 mb 0.00 in0.0 mm 0.00 in/hr0.0 mm/hr 0.01 in0.3 mm
02:40 PM 65.1°F18.4°C 56.2°F13.4°C 73% 2.2 mph NW3.5 kmh NW 3.8 mph6.1 kmh 30.10 in1019.3 mb 0.00 in0.0 mm 0.00 in/hr0.0 mm/hr 0.01 in0.3 mm
02:38 PM 64.2°F17.9°C 56.5°F13.6°C 76% 3.3 mph N5.3 kmh N 7.6 mph12.2 kmh 30.10 in1019.3 mb 0.00 in0.0 mm 0.00 in/hr0.0 mm/hr 0.01 in0.3 mm
02:33 PM 64.4°F18.0°C 55.9°F13.3°C 74% 2.8 mph N4.5 kmh N 7.6 mph12.2 kmh 30.10 in1019.3 mb 0.00 in0.0 mm 0.00 in/hr0.0 mm/hr 0.01 in0.3 mm
02:28 PM 64.8°F18.2°C 56.3°F13.5°C 74% 2.1 mph N3.4 kmh N 4.5 mph7.2 kmh 30.10 in1019.3 mb 0.00 in0.0 mm 0.00 in/hr0.0 mm/hr 0.01 in0.3 mm
02:22 PM 65.1°F18.4°C 56.2°F13.4°C 73% 2.2 mph NW3.5 kmh NW 3.8 mph6.1 kmh 30.10 in1019.3 mb 0.00 in0.0 mm 0.00 in/hr0.0 mm/hr 0.01 in0.3 mm
02:15 PM 66.2°F19.0°C 56.1°F13.4°C 70% 2.4 mph WNW3.9 kmh WNW 7.6 mph12.2 kmh 30.10 in1019.3 mb 0.00 in0.0 mm 0.00 in/hr0.0 mm/hr 0.01 in0.3 mm
02:00 PM 68.4°F20.2°C 54.0°F12.2°C 60% 2.2 mph WNW3.5 kmh WNW 9.8 mph15.8 kmh 30.10 in1019.3 mb 0.00 in0.0 mm 0.00 in/hr0.0 mm/hr 0.01 in0.3 mm
01:45 PM 68.7°F20.4°C 55.2°F12.9°C 62% 2.6 mph WSW4.2 kmh WSW 9.2 mph14.8 kmh 30.11 in1019.6 mb 0.00 in0.0 mm 0.00 in/hr0.0 mm/hr 0.01 in0.3 mm
01:30 PM 71.1°F21.7°C 56.0°F13.3°C 59% 2.7 mph N4.3 kmh N 8.3 mph13.4 kmh 30.10 in1019.3 mb 0.00 in0.0 mm 0.00 in/hr0.0 mm/hr 0.01 in0.3 mm
01:15 PM 69.4°F20.8°C 56.3°F13.5°C 63% 2.3 mph N3.7 kmh N 9.8 mph15.8 kmh 30.12 in1020.0 mb 0.00 in0.0 mm 0.00 in/hr0.0 mm/hr 0.01 in0.3 mm
01:00 PM 68.5°F20.3°C 55.5°F13.1°C 63% 2.5 mph WSW4.0 kmh WSW 11.4 mph18.3 kmh 30.12 in1020.0 mb 0.00 in0.0 mm 0.00 in/hr0.0 mm/hr 0.01 in0.3 mm
12:45 PM 68.7°F20.4°C 55.2°F12.9°C 62% 1.9 mph SE3.1 kmh SE 6.9 mph11.1 kmh 30.13 in1020.3 mb 0.00 in0.0 mm 0.00 in/hr0.0 mm/hr 0.01 in0.3 mm
12:30 PM 69.1°F20.6°C 54.6°F12.6°C 60% 3.6 mph SE5.8 kmh SE 13.6 mph21.9 kmh 30.13 in1020.3 mb 0.00 in0.0 mm 0.00 in/hr0.0 mm/hr 0.01 in0.3 mm
12:15 PM 69.6°F20.9°C 55.6°F13.1°C 61% 3.5 mph N5.6 kmh N 10.7 mph17.2 kmh 30.13 in1020.3 mb 0.00 in0.0 mm 0.00 in/hr0.0 mm/hr 0.01 in0.3 mm
12:00 PM 69.6°F20.9°C 55.1°F12.8°C 60% 4.7 mph W7.6 kmh W 13.6 mph21.9 kmh 30.14 in1020.7 mb 0.00 in0.0 mm 0.00 in/hr0.0 mm/hr 0.01 in0.3 mm
11:45 AM 66.6°F19.2°C 53.6°F12.0°C 63% 3.9 mph WSW6.3 kmh WSW 13.6 mph21.9 kmh 30.14 in1020.7 mb 0.00 in0.0 mm 0.00 in/hr0.0 mm/hr 0.01 in0.3 mm
11:30 AM 66.7°F19.3°C 54.2°F12.3°C 64% 4.5 mph W7.2 kmh W 12.1 mph19.5 kmh 30.14 in1020.7 mb 0.00 in0.0 mm 0.00 in/hr0.0 mm/hr 0.01 in0.3 mm
11:15 AM 67.5°F19.7°C 53.6°F12.0°C 61% 2.9 mph WNW4.7 kmh WNW 12.1 mph19.5 kmh 30.15 in1021.0 mb 0.00 in0.0 mm 0.00 in/hr0.0 mm/hr 0.01 in0.3 mm
11:00 AM 63.1°F17.3°C 52.4°F11.3°C 68% 3.9 mph WSW6.3 kmh WSW 14.5 mph23.3 kmh 30.14 in1020.7 mb 0.00 in0.0 mm 0.00 in/hr0.0 mm/hr 0.01 in0.3 mm
10:45 AM 63.9°F17.7°C 54.7°F12.6°C 72% 3.1 mph WSW5.0 kmh WSW 10.7 mph17.2 kmh 30.15 in1021.0 mb 0.00 in0.0 mm 0.00 in/hr0.0 mm/hr 0.01 in0.3 mm
10:30 AM 61.7°F16.5°C 55.1°F12.8°C 79% 2.7 mph SW4.3 kmh SW 6.9 mph11.1 kmh 30.15 in1021.0 mb 0.00 in0.0 mm 0.00 in/hr0.0 mm/hr 0.01 in0.3 mm
10:15 AM 61.0°F16.1°C 54.1°F12.3°C 78% 4.3 mph W6.9 kmh W 12.1 mph19.5 kmh 30.15 in1021.0 mb 0.00 in0.0 mm 0.00 in/hr0.0 mm/hr 0.01 in0.3 mm
10:00 AM 62.8°F17.1°C 53.3°F11.8°C 71% 3.1 mph WSW5.0 kmh WSW 9.8 mph15.8 kmh 30.14 in1020.7 mb 0.00 in0.0 mm 0.00 in/hr0.0 mm/hr 0.01 in0.3 mm
09:45 AM 65.1°F18.4°C 53.1°F11.7°C 65% 5.3 mph WSW8.5 kmh WSW 14.5 mph23.3 kmh 30.15 in1021.0 mb 0.00 in0.0 mm 0.00 in/hr0.0 mm/hr 0.01 in0.3 mm
09:30 AM 66.0°F18.9°C 55.2°F12.9°C 68% 3.1 mph SW5.0 kmh SW 10.7 mph17.2 kmh 30.14 in1020.7 mb 0.00 in0.0 mm 0.00 in/hr0.0 mm/hr 0.01 in0.3 mm
09:15 AM 66.7°F19.3°C 54.2°F12.3°C 64% 3.1 mph W5.0 kmh W 9.8 mph15.8 kmh 30.13 in1020.3 mb 0.00 in0.0 mm 0.00 in/hr0.0 mm/hr 0.01 in0.3 mm
09:00 AM 67.1°F19.5°C 53.7°F12.1°C 62% 3.2 mph WSW5.1 kmh WSW 9.8 mph15.8 kmh 30.13 in1020.3 mb 0.00 in0.0 mm 0.00 in/hr0.0 mm/hr 0.01 in0.3 mm
08:45 AM 68.4°F20.2°C 53.5°F11.9°C 59% 3.0 mph WSW4.8 kmh WSW 9.8 mph15.8 kmh 30.13 in1020.3 mb 0.00 in0.0 mm 0.00 in/hr0.0 mm/hr 0.01 in0.3 mm
08:30 AM 66.2°F19.0°C 52.4°F11.3°C 61% 3.2 mph W5.1 kmh W 8.3 mph13.4 kmh 30.12 in1020.0 mb 0.00 in0.0 mm 0.00 in/hr0.0 mm/hr 0.01 in0.3 mm
08:15 AM 63.3°F17.4°C 53.0°F11.7°C 69% 2.8 mph WSW4.5 kmh WSW 9.8 mph15.8 kmh 30.11 in1019.6 mb 0.00 in0.0 mm 0.00 in/hr0.0 mm/hr 0.01 in0.3 mm
08:00 AM 60.1°F15.6°C 52.5°F11.4°C 76% 3.4 mph NW5.5 kmh NW 7.6 mph12.2 kmh 30.11 in1019.6 mb 0.00 in0.0 mm 0.00 in/hr0.0 mm/hr 0.01 in0.3 mm
07:45 AM 59.5°F15.3°C 52.0°F11.1°C 76% 3.0 mph W4.8 kmh W 12.1 mph19.5 kmh 30.11 in1019.6 mb 0.00 in0.0 mm 0.00 in/hr0.0 mm/hr 0.01 in0.3 mm
07:30 AM 59.7°F15.4°C 50.7°F10.4°C 72% 2.7 mph W4.3 kmh W 9.8 mph15.8 kmh 30.10 in1019.3 mb 0.00 in0.0 mm 0.00 in/hr0.0 mm/hr 0.01 in0.3 mm
07:15 AM 59.9°F15.5°C 49.7°F9.8°C 69% 3.0 mph SW4.8 kmh SW 12.1 mph19.5 kmh 30.10 in1019.3 mb 0.00 in0.0 mm 0.00 in/hr0.0 mm/hr 0.01 in0.3 mm
07:00 AM 59.2°F15.1°C 52.3°F11.3°C 78% 3.8 mph SSE6.1 kmh SSE 11.4 mph18.3 kmh 30.09 in1019.0 mb 0.00 in0.0 mm 0.00 in/hr0.0 mm/hr 0.01 in0.3 mm
06:45 AM 58.6°F14.8°C 52.2°F11.2°C 79% 3.9 mph SW6.3 kmh SW 10.7 mph17.2 kmh 30.09 in1019.0 mb 0.00 in0.0 mm 0.00 in/hr0.0 mm/hr 0.01 in0.3 mm
06:30 AM 57.9°F14.4°C 52.1°F11.2°C 81% 2.0 mph WSW3.2 kmh WSW 6.9 mph11.1 kmh 30.09 in1019.0 mb 0.00 in0.0 mm 0.00 in/hr0.0 mm/hr 0.01 in0.3 mm
06:15 AM 58.3°F14.6°C 51.8°F11.0°C 79% 2.2 mph WSW3.5 kmh WSW 10.7 mph17.2 kmh 30.09 in1019.0 mb 0.00 in0.0 mm 0.00 in/hr0.0 mm/hr 0.01 in0.3 mm
06:00 AM 58.6°F14.8°C 52.2°F11.2°C 79% 3.0 mph SW4.8 kmh SW 10.7 mph17.2 kmh 30.09 in1019.0 mb 0.00 in0.0 mm 0.00 in/hr0.0 mm/hr 0.01 in0.3 mm
05:45 AM 59.4°F15.2°C 52.5°F11.4°C 78% 3.4 mph WSW5.5 kmh WSW 8.3 mph13.4 kmh 30.09 in1019.0 mb 0.00 in0.0 mm 0.00 in/hr0.0 mm/hr 0.01 in0.3 mm
05:30 AM 59.4°F15.2°C 52.9°F11.6°C 79% 3.5 mph SW5.6 kmh SW 12.1 mph19.5 kmh 30.08 in1018.6 mb 0.00 in0.0 mm 0.00 in/hr0.0 mm/hr 0.01 in0.3 mm
05:15 AM 59.2°F15.1°C 53.4°F11.9°C 81% 3.2 mph W5.1 kmh W 10.7 mph17.2 kmh 30.08 in1018.6 mb 0.00 in0.0 mm 0.00 in/hr0.0 mm/hr 0.01 in0.3 mm
05:00 AM 59.0°F15.0°C 53.2°F11.8°C 81% 2.9 mph SW4.7 kmh SW 9.8 mph15.8 kmh 30.09 in1019.0 mb 0.00 in0.0 mm 0.00 in/hr0.0 mm/hr 0.01 in0.3 mm
04:45 AM 58.8°F14.9°C 53.0°F11.7°C 81% 3.3 mph W5.3 kmh W 12.1 mph19.5 kmh 30.09 in1019.0 mb 0.00 in0.0 mm 0.00 in/hr0.0 mm/hr 0.01 in0.3 mm
04:30 AM 58.6°F14.8°C 53.2°F11.8°C 82% 2.5 mph SW4.0 kmh SW 6.9 mph11.1 kmh 30.08 in1018.6 mb 0.00 in0.0 mm 0.00 in/hr0.0 mm/hr 0.01 in0.3 mm
04:15 AM 59.2°F15.1°C 52.7°F11.5°C 79% 3.9 mph WNW6.3 kmh WNW 9.2 mph14.8 kmh 30.08 in1018.6 mb 0.00 in0.0 mm 0.00 in/hr0.0 mm/hr 0.01 in0.3 mm
04:00 AM 59.0°F15.0°C 52.2°F11.2°C 78% 3.5 mph WSW5.6 kmh WSW 14.5 mph23.3 kmh 30.09 in1019.0 mb 0.00 in0.0 mm 0.00 in/hr0.0 mm/hr 0.01 in0.3 mm
03:45 AM 59.0°F15.0°C 52.2°F11.2°C 78% 4.0 mph SW6.4 kmh SW 13.6 mph21.9 kmh 30.10 in1019.3 mb 0.00 in0.0 mm 0.00 in/hr0.0 mm/hr 0.01 in0.3 mm
03:30 AM 57.9°F14.4°C 52.5°F11.4°C 82% 2.0 mph SW3.2 kmh SW 7.6 mph12.2 kmh 30.10 in1019.3 mb 0.00 in0.0 mm 0.00 in/hr0.0 mm/hr 0.01 in0.3 mm
03:15 AM 57.9°F14.4°C 53.4°F11.9°C 85% 3.3 mph W5.3 kmh W 10.7 mph17.2 kmh 30.10 in1019.3 mb 0.00 in0.0 mm 0.00 in/hr0.0 mm/hr 0.01 in0.3 mm
03:00 AM 58.1°F14.5°C 53.3°F11.8°C 84% 3.7 mph WSW6.0 kmh WSW 9.8 mph15.8 kmh 30.10 in1019.3 mb 0.00 in0.0 mm 0.00 in/hr0.0 mm/hr 0.01 in0.3 mm
02:45 AM 57.6°F14.2°C 54.0°F12.2°C 88% 2.0 mph W3.2 kmh W 8.3 mph13.4 kmh 30.10 in1019.3 mb 0.01 in0.3 mm 0.00 in/hr0.0 mm/hr 0.01 in0.3 mm
02:30 AM 57.4°F14.1°C 54.2°F12.3°C 89% 1.4 mph NW2.3 kmh NW 7.6 mph12.2 kmh 30.10 in1019.3 mb 0.01 in0.3 mm 0.00 in/hr0.0 mm/hr 0.01 in0.3 mm
02:15 AM 57.2°F14.0°C 54.0°F12.2°C 89% 2.3 mph WNW3.7 kmh WNW 10.7 mph17.2 kmh 30.10 in1019.3 mb 0.01 in0.3 mm 0.00 in/hr0.0 mm/hr 0.01 in0.3 mm
02:00 AM 57.9°F14.4°C 53.8°F12.1°C 86% 2.4 mph E3.9 kmh E 9.2 mph14.8 kmh 30.10 in1019.3 mb 0.01 in0.3 mm 0.01 in/hr0.3 mm/hr 0.01 in0.3 mm
01:45 AM 58.3°F14.6°C 53.8°F12.1°C 85% 2.9 mph W4.7 kmh W 10.7 mph17.2 kmh 30.10 in1019.3 mb 0.00 in0.0 mm 0.00 in/hr0.0 mm/hr 0.00 in0.0 mm
01:30 AM 57.7°F14.3°C 53.9°F12.2°C 87% 2.9 mph WSW4.7 kmh WSW 12.1 mph19.5 kmh 30.11 in1019.6 mb 0.00 in0.0 mm 0.00 in/hr0.0 mm/hr 0.00 in0.0 mm
01:15 AM 57.7°F14.3°C 52.6°F11.4°C 83% 2.3 mph SW3.7 kmh SW 11.4 mph18.3 kmh 30.11 in1019.6 mb 0.00 in0.0 mm 0.00 in/hr0.0 mm/hr 0.00 in0.0 mm
01:00 AM 57.7°F14.3°C 52.3°F11.3°C 82% 3.7 mph WSW6.0 kmh WSW 12.1 mph19.5 kmh 30.11 in1019.6 mb 0.00 in0.0 mm 0.00 in/hr0.0 mm/hr 0.00 in0.0 mm
12:45 AM 59.0°F15.0°C 53.2°F11.8°C 81% 3.8 mph WSW6.1 kmh WSW 13.0 mph20.9 kmh 30.11 in1019.6 mb 0.00 in0.0 mm 0.00 in/hr0.0 mm/hr 0.00 in0.0 mm
12:30 AM 59.0°F15.0°C 53.2°F11.8°C 81% 4.1 mph W6.6 kmh W 9.8 mph15.8 kmh 30.11 in1019.6 mb 0.00 in0.0 mm 0.00 in/hr0.0 mm/hr 0.00 in0.0 mm
12:15 AM 58.6°F14.8°C 53.8°F12.1°C 84% 2.7 mph W4.3 kmh W 9.2 mph14.8 kmh 30.11 in1019.6 mb 0.00 in0.0 mm 0.00 in/hr0.0 mm/hr 0.00 in0.0 mm
12:00 AM 59.0°F15.0°C 53.2°F11.8°C 81% 2.3 mph WNW3.7 kmh WNW 8.3 mph13.4 kmh 30.12 in1020.0 mb 0.00 in0.0 mm 0.00 in/hr0.0 mm/hr 0.00 in0.0 mm